Time;durP1;ratioP1;P1;durP2;ratioP2;P2;SDS_P1;SDS_P2;PMS_P1;PMS_P2;Temp;Humidity;BMP_temperature;BMP_pressure;BME280_temperature;BME280_humidity;BME280_pressure;Samples;Min_cycle;Max_cycle;Signal;HPM_P1;HPM_P2
2022/01/27 00:01:34;;;;;;;33.85;5.40;;;;;;;22.08;54.86;100319.00;7311431;19;130862;-39
2022/01/27 00:06:25;;;;;;;22.90;4.83;;;;;;;22.25;54.13;100326.28;7323657;19;128949;-41
2022/01/27 00:08:57;;;;;;;39.00;6.18;;;;;;;22.32;53.97;100317.81;7323401;19;158710;-40
2022/01/27 00:11:22;;;;;;;36.47;5.78;;;;;;;22.40;53.67;100304.91;7325874;19;130423;-41
2022/01/27 00:13:53;;;;;;;36.53;5.78;;;;;;;22.46;53.13;100319.28;7324197;19;154893;-41
2022/01/27 00:16:23;;;;;;;38.42;5.95;;;;;;;22.49;53.08;100329.53;7323304;19;130598;-41
2022/01/27 00:18:49;;;;;;;28.55;5.35;;;;;;;22.40;53.32;100314.53;7325565;19;130386;-40
2022/01/27 00:21:18;;;;;;;31.77;5.53;;;;;;;22.46;53.50;100312.25;7325198;19;129654;-40
2022/01/27 00:23:45;;;;;;;33.08;5.78;;;;;;;22.44;53.84;100318.59;7324791;19;128895;-40
2022/01/27 00:26:11;;;;;;;;;;;;;;;22.31;53.79;100299.59;7323676;19;129203;-40
2022/01/27 00:28:36;;;;;;;18.42;4.30;;;;;;;22.34;53.50;100309.81;7325649;19;129063;-40
2022/01/27 00:31:02;;;;;;;35.58;5.47;;;;;;;22.29;53.56;100323.31;7320143;19;131387;-40
2022/01/27 00:33:27;;;;;;;36.40;5.95;;;;;;;22.25;53.67;100311.41;7317411;19;154687;-41
2022/01/27 00:35:52;;;;;;;50.08;7.53;;;;;;;22.19;54.37;100295.38;7315519;19;131586;-40
2022/01/27 00:38:18;;;;;;;55.10;7.25;;;;;;;22.14;54.56;100306.22;7315871;19;132535;-40
2022/01/27 00:40:43;;;;;;;50.60;6.93;;;;;;;22.11;54.33;100297.78;7314983;19;130664;-40
2022/01/27 00:43:09;;;;;;;27.63;4.45;;;;;;;22.00;54.89;100279.53;7320583;19;129162;-40
2022/01/27 00:45:35;;;;;;;26.52;4.80;;;;;;;22.04;55.11;100296.63;7317401;19;142850;-41
2022/01/27 00:48:03;;;;;;;27.85;5.13;;;;;;;22.03;54.96;100292.34;7318425;19;131431;-40
2022/01/27 00:50:31;;;;;;;40.55;6.32;;;;;;;22.01;55.53;100289.88;7316617;19;130988;-41
2022/01/27 00:52:58;;;;;;;46.42;6.60;;;;;;;22.01;54.81;100281.16;7316527;19;129112;-41
2022/01/27 00:55:25;;;;;;;48.22;6.40;;;;;;;21.86;55.96;100265.78;7315699;19;130287;-39
2022/01/27 01:00:27;;;;;;;42.72;5.82;;;;;;;21.98;55.74;100266.56;7317211;19;135828;-41
2022/01/27 01:03:05;;;;;;;32.72;5.10;;;;;;;21.98;55.50;100272.59;7318689;19;129221;-38
2022/01/27 01:09:20;;;;;;;41.55;6.32;;;;;;;21.89;55.82;100267.28;7315657;19;131034;-40
2022/01/27 01:11:42;;;;;;;27.52;5.00;;;;;;;21.91;56.02;100265.38;7320214;19;130175;-40
2022/01/27 01:16:59;;;;;;;27.20;5.10;;;;;;;21.98;55.38;100246.41;7305434;19;132569;-41
2022/01/27 01:29:22;;;;;;;50.03;7.13;;;;;;;22.18;54.31;100242.16;7307280;19;158533;-41
2022/01/27 01:32:57;;;;;;;37.47;5.78;;;;;;;22.49;53.84;100250.91;7306252;19;131001;-41
2022/01/27 01:35:28;;;;;;;47.67;6.68;;;;;;;22.51;53.49;100249.00;7307373;19;129285;-40
2022/01/27 01:37:55;;;;;;;40.60;6.35;;;;;;;22.48;53.68;100243.97;7307357;19;129084;-41
2022/01/27 01:40:21;;;;;;;48.97;6.68;;;;;;;22.46;53.72;100244.13;7306154;19;131213;-41
2022/01/27 01:42:46;;;;;;;44.65;6.13;;;;;;;22.41;53.98;100248.91;7308712;19;157896;-40
2022/01/27 01:45:17;;;;;;;62.72;7.65;;;;;;;22.42;54.14;100247.97;7310180;19;129098;-38
2022/01/27 01:47:42;;;;;;;44.08;6.07;;;;;;;22.36;53.76;100234.56;7308418;19;129523;-41
2022/01/27 01:50:09;;;;;;;34.42;5.25;;;;;;;22.27;54.11;100230.91;7309124;19;129512;-41
2022/01/27 01:52:35;;;;;;;44.00;6.03;;;;;;;22.25;54.27;100232.00;7307303;19;131048;-40
2022/01/27 01:55:00;;;;;;;36.13;5.40;;;;;;;22.18;54.74;100231.66;7308072;19;130336;-39
2022/01/27 01:57:26;;;;;;;39.78;5.78;;;;;;;22.14;54.79;100218.97;7307024;19;131518;-38
2022/01/27 01:59:52;;;;;;;33.85;5.53;;;;;;;22.11;54.76;100221.84;7308603;19;129950;-38
2022/01/27 02:02:17;;;;;;;35.70;5.10;;;;;;;22.03;55.74;100209.41;7311090;19;158636;-39
2022/01/27 02:04:43;;;;;;;29.98;4.57;;;;;;;22.00;55.38;100195.75;7314424;19;129694;-40
2022/01/27 02:07:27;;;;;;;30.50;4.70;;;;;;;21.98;55.55;100207.16;7311008;19;130760;-40
2022/01/27 02:17:58;;;;;;;44.00;5.60;;;;;;;21.91;55.61;100177.19;7312202;19;131288;-39
2022/01/27 02:18:15;;;;;;;25.45;4.60;;;;;;;21.94;55.70;100182.19;7313995;19;128730;-40
2022/01/27 02:20:40;;;;;;;27.35;4.63;;;;;;;21.88;56.38;100180.06;7310930;19;158496;-41
2022/01/27 02:23:08;;;;;;;17.90;3.65;;;;;;;21.87;56.37;100178.41;7314658;19;130399;-40
2022/01/27 02:25:34;;;;;;;13.93;3.80;;;;;;;21.87;56.33;100169.72;7313392;19;129035;-41
2022/01/27 02:28:00;;;;;;;23.42;4.20;;;;;;;21.91;55.69;100164.09;7310962;19;129668;-41
2022/01/27 02:30:26;;;;;;;23.63;4.55;;;;;;;21.96;55.78;100174.22;7312875;19;129065;-39
2022/01/27 02:32:52;;;;;;;35.70;5.17;;;;;;;22.02;55.01;100167.63;7312436;19;129290;-40
2022/01/27 02:35:19;;;;;;;65.95;7.53;;;;;;;22.10;54.83;100166.03;7313235;19;129015;-41
2022/01/27 02:37:44;;;;;;;;;;;;;;;22.15;55.42;100168.28;7313194;19;129110;-41
2022/01/27 02:40:11;;;;;;;25.30;4.32;;;;;;;22.26;54.94;100165.56;7311940;19;129451;-40
2022/01/27 02:42:37;;;;;;;25.10;4.25;;;;;;;22.35;54.43;100175.25;7313812;19;130371;-39
2022/01/27 02:45:08;;;;;;;14.25;3.47;;;;;;;22.44;54.20;100175.31;7311056;19;147342;-41
2022/01/27 02:47:34;;;;;;;28.33;4.95;;;;;;;22.49;54.02;100167.06;7313558;19;129191;-41
2022/01/27 02:49:59;;;;;;;12.23;3.20;;;;;;;22.54;54.17;100151.81;7313716;19;130016;-40
2022/01/27 02:52:24;;;;;;;25.90;4.20;;;;;;;22.51;53.94;100141.56;7311210;19;159366;-42
2022/01/27 02:54:50;;;;;;;46.60;6.45;;;;;;;22.47;54.28;100133.13;7312770;19;129750;-40
2022/01/27 02:57:15;;;;;;;28.77;4.32;;;;;;;22.46;53.46;100125.41;7309375;19;153591;-41
2022/01/27 02:59:41;;;;;;;38.17;4.95;;;;;;;22.40;54.30;100120.66;7310929;19;129018;-38
2022/01/27 03:02:06;;;;;;;26.63;4.25;;;;;;;22.37;54.49;100118.31;7311940;19;130437;-40
2022/01/27 03:04:33;;;;;;;20.95;3.72;;;;;;;22.36;54.58;100120.09;7311712;19;155145;-41
2022/01/27 03:07:02;;;;;;;35.38;4.97;;;;;;;22.27;55.06;100109.59;7307998;19;131107;-41
2022/01/27 03:09:27;;;;;;;21.83;4.10;;;;;;;22.23;54.58;100110.84;7313609;19;130574;-41
2022/01/27 03:12:10;;;;;;;28.33;4.90;;;;;;;22.15;55.08;100118.50;7311027;19;159190;-42
2022/01/27 03:14:35;;;;;;;24.33;4.20;;;;;;;22.00;54.92;100094.44;7312667;19;131612;-41
2022/01/27 03:17:03;;;;;;;20.13;3.30;;;;;;;21.95;55.71;100092.22;7308697;19;132812;-40
2022/01/27 03:19:29;;;;;;;20.75;3.50;;;;;;;22.03;55.55;100111.69;7312784;19;129178;-40
2022/01/27 03:21:55;;;;;;;35.33;4.80;;;;;;;21.98;55.50;100110.28;7312415;19;129635;-41
2022/01/27 03:24:22;;;;;;;21.58;4.28;;;;;;;21.93;56.13;100099.34;7312895;19;128758;-40
2022/01/27 03:26:48;;;;;;;34.85;4.82;;;;;;;21.93;56.37;100091.50;7308445;19;129791;-40
2022/01/27 03:29:16;;;;;;;31.45;4.45;;;;;;;21.91;56.29;100090.00;7312766;19;130454;-41
2022/01/27 03:31:41;;;;;;;11.63;3.13;;;;;;;21.92;56.46;100094.25;7312281;19;130679;-41
2022/01/27 03:34:06;;;;;;;25.10;4.38;;;;;;;21.89;55.84;100084.88;7310281;19;155129;-39
2022/01/27 03:36:32;;;;;;;25.30;4.03;;;;;;;21.86;56.07;100090.38;7308072;19;154137;-41
2022/01/27 03:38:57;;;;;;;24.93;4.37;;;;;;;21.85;56.25;100083.47;7310785;19;129360;-41
2022/01/27 03:41:23;;;;;;;29.35;4.32;;;;;;;21.88;56.41;100093.69;7308839;19;157733;-41
2022/01/27 03:43:50;;;;;;;45.27;5.87;;;;;;;21.95;56.02;100097.44;7312298;19;129071;-42
2022/01/27 03:46:15;;;;;;;;;;;;;;;21.98;55.97;100091.94;7309858;19;129714;-40
2022/01/27 03:48:40;;;;;;;23.07;3.80;;;;;;;22.08;55.83;100085.94;7312375;19;146888;-41
2022/01/27 03:51:06;;;;;;;27.25;4.03;;;;;;;22.17;55.27;100079.91;7310569;19;158534;-41
2022/01/27 03:53:31;;;;;;;21.02;3.38;;;;;;;22.32;54.90;100082.06;7312281;19;130482;-40
2022/01/27 03:55:56;;;;;;;12.52;2.97;;;;;;;22.51;54.00;100066.38;7308010;19;129014;-41
2022/01/27 03:58:22;;;;;;;36.80;5.07;;;;;;;22.63;53.99;100054.03;7311466;19;130378;-43
2022/01/27 04:00:47;;;;;;;28.00;4.25;;;;;;;22.93;52.96;100067.03;7310401;19;129720;-39
2022/01/27 04:03:15;;;;;;;32.28;4.40;;;;;;;23.11;52.56;100044.41;7311661;19;141000;-41
2022/01/27 04:05:45;;;;;;;35.42;4.70;;;;;;;23.20;52.54;100028.66;7309906;19;130099;-41
2022/01/27 04:08:13;;;;;;;31.67;4.13;;;;;;;23.36;51.88;100030.75;7311127;19;131512;-38
2022/01/27 04:10:39;;;;;;;29.73;3.97;;;;;;;23.48;51.56;100050.63;7309664;19;130326;-38
2022/01/27 04:13:06;;;;;;;25.77;4.00;;;;;;;23.55;51.04;100043.81;7310381;19;129833;-42
2022/01/27 04:15:32;;;;;;;39.67;5.00;;;;;;;23.65;51.25;100039.38;7307425;19;129656;-40
2022/01/27 04:17:57;;;;;;;21.33;3.53;;;;;;;23.75;51.23;100023.63;7310462;19;131199;-41
2022/01/27 04:20:22;;;;;;;48.45;5.35;;;;;;;23.74;50.92;100016.72;7306882;19;159214;-41
2022/01/27 04:22:49;;;;;;;23.92;3.40;;;;;;;23.86;50.27;100020.81;7309868;19;129271;-42
2022/01/27 04:25:15;;;;;;;57.13;6.65;;;;;;;23.83;50.68;100005.34;7309433;19;129139;-40
2022/01/27 04:27:46;;;;;;;29.13;4.03;;;;;;;23.84;50.16;99994.72;7307424;19;130174;-40
2022/01/27 04:30:20;;;;;;;24.98;3.85;;;;;;;23.87;50.09;99993.56;7310512;19;129619;-41
2022/01/27 04:32:51;;;;;;;29.00;4.07;;;;;;;23.87;50.68;99976.03;7309657;19;128985;-39
2022/01/27 04:35:20;;;;;;;56.42;6.50;;;;;;;23.84;50.43;99975.50;7308698;19;129072;-42
2022/01/27 04:40:35;;;;;;;31.75;4.28;;;;;;;23.78;50.71;99971.66;7308009;19;129649;-41
2022/01/27 04:43:17;;;;;;;19.40;2.85;;;;;;;23.78;50.64;99955.06;7309550;19;129030;-47
2022/01/27 04:48:23;;;;;;;35.75;4.70;;;;;;;23.61;50.92;99959.28;7309747;19;129406;-42
2022/01/27 04:50:50;;;;;;;30.70;4.25;;;;;;;23.56;51.45;99960.69;7311757;19;129192;-42
2022/01/27 04:53:26;;;;;;;25.85;3.78;;;;;;;23.43;51.99;99950.50;7316540;19;129504;-40
2022/01/27 04:55:54;;;;;;;37.05;4.93;;;;;;;23.35;52.19;99952.19;7313761;19;129365;-41
2022/01/27 04:58:27;;;;;;;39.33;4.78;;;;;;;23.24;52.47;99958.38;7315498;19;131727;-40
2022/01/27 05:00:53;;;;;;;38.45;4.95;;;;;;;23.16;52.37;99953.00;7315537;19;130389;-41
2022/01/27 05:03:30;;;;;;;22.15;3.63;;;;;;;23.06;52.95;99954.81;7316293;19;129554;-40
2022/01/27 05:05:56;;;;;;;13.55;3.10;;;;;;;22.98;53.20;99934.56;7313132;19;129232;-40
2022/01/27 05:08:22;;;;;;;33.22;4.07;;;;;;;22.88;53.23;99928.50;7316007;19;130677;-40
2022/01/27 05:10:58;;;;;;;34.67;4.38;;;;;;;22.82;53.46;99923.00;7313918;19;150513;-41
2022/01/27 05:13:26;;;;;;;32.60;4.55;;;;;;;22.72;53.31;99911.69;7315506;19;130054;-41
2022/01/27 05:15:51;;;;;;;43.10;4.90;;;;;;;22.63;53.63;99907.25;7313825;19;129241;-40
2022/01/27 05:18:16;;;;;;;24.50;3.53;;;;;;;22.60;54.27;99902.28;7315486;19;130079;-41
2022/01/27 05:20:43;;;;;;;22.17;3.50;;;;;;;22.53;54.02;99912.50;7315068;19;132768;-40
2022/01/27 05:23:09;;;;;;;23.38;3.20;;;;;;;22.47;54.19;99910.41;7314714;19;128842;-40
2022/01/27 05:25:34;;;;;;;31.95;4.53;;;;;;;22.43;54.91;99905.59;7314233;19;128973;-40
2022/01/27 05:28:00;;;;;;;32.47;4.47;;;;;;;22.39;54.51;99904.19;7313427;19;135152;-41
2022/01/27 05:30:25;;;;;;;26.38;3.80;;;;;;;22.36;54.78;99900.06;7316238;19;130325;-40
2022/01/27 05:32:50;;;;;;;33.17;4.40;;;;;;;22.34;54.90;99907.25;7312964;19;153418;-40
2022/01/27 05:35:16;;;;;;;49.05;6.03;;;;;;;22.27;55.15;99907.91;7314643;19;129627;-41
2022/01/27 05:37:41;;;;;;;39.55;4.75;;;;;;;22.26;55.49;99906.25;7313916;19;141938;-40
2022/01/27 05:40:07;;;;;;;44.15;4.72;;;;;;;22.24;55.76;99924.72;7313198;19;158440;-40
2022/01/27 05:42:33;;;;;;;32.90;4.47;;;;;;;22.23;55.34;99922.25;7314275;19;130370;-40
2022/01/27 05:44:58;;;;;;;24.42;3.22;;;;;;;22.20;56.26;99915.47;7316124;19;129036;-42
2022/01/27 05:47:24;;;;;;;19.52;3.45;;;;;;;22.24;56.11;99921.28;7311048;19;129287;-40
2022/01/27 05:49:49;;;;;;;43.22;5.22;;;;;;;22.20;56.29;99912.03;7312663;19;158820;-40
2022/01/27 05:52:14;;;;;;;26.30;3.65;;;;;;;22.22;56.02;99912.72;7313422;19;153610;-41
2022/01/27 05:54:39;;;;;;;21.10;3.30;;;;;;;22.14;55.75;99916.03;7314226;19;154169;-39
2022/01/27 05:57:05;;;;;;;33.63;4.10;;;;;;;22.11;56.69;99899.75;7309415;19;158459;-39
2022/01/27 05:59:30;;;;;;;22.95;3.45;;;;;;;22.11;56.43;99920.72;7311599;19;159086;-39
2022/01/27 06:01:55;;;;;;;40.50;4.80;;;;;;;22.09;56.43;99914.78;7308755;19;154402;-38
2022/01/27 06:04:21;;;;;;;34.73;4.23;;;;;;;22.04;56.33;99904.72;7315174;19;129226;-39
2022/01/27 06:06:46;;;;;;;29.95;4.35;;;;;;;22.04;55.93;99899.47;7310099;19;159266;-39
2022/01/27 06:09:11;;;;;;;24.70;3.88;;;;;;;22.05;55.96;99901.13;7313957;19;130466;-40
2022/01/27 06:11:37;;;;;;;36.97;4.63;;;;;;;22.07;55.45;99899.19;7310573;19;154373;-39
2022/01/27 06:14:02;;;;;;;21.45;3.20;;;;;;;22.09;56.06;99904.28;7313066;19;152978;-39
2022/01/27 06:16:28;;;;;;;18.88;3.40;;;;;;;22.16;55.67;99906.25;7311521;19;130490;-40
2022/01/27 06:18:53;;;;;;;32.65;3.95;;;;;;;22.19;55.19;99902.53;7313772;19;129168;-38
2022/01/27 06:21:18;;;;;;;30.30;4.15;;;;;;;22.24;55.06;99911.63;7310160;19;155835;-39
2022/01/27 06:23:44;;;;;;;19.48;3.20;;;;;;;22.29;54.81;99903.38;7313078;19;129005;-40
2022/01/27 06:26:09;;;;;;;27.73;3.72;;;;;;;22.35;54.69;99903.66;7309526;19;130115;-38
2022/01/27 06:28:34;;;;;;;36.80;4.32;;;;;;;22.42;54.44;99893.44;7312201;19;157178;-38
2022/01/27 06:31:00;;;;;;;35.13;4.25;;;;;;;22.47;54.70;99891.25;7311384;19;154536;-38
2022/01/27 06:33:25;;;;;;;24.23;3.15;;;;;;;22.55;54.46;99878.31;7313980;19;128904;-38
2022/01/27 06:35:50;;;;;;;40.88;4.63;;;;;;;22.60;54.21;99876.09;7309658;19;129554;-39
2022/01/27 06:38:17;;;;;;;26.45;3.72;;;;;;;22.61;54.44;99875.16;7308208;19;158794;-38
2022/01/27 06:40:43;;;;;;;37.60;4.40;;;;;;;22.58;54.34;99862.28;7311662;19;129396;-39
2022/01/27 06:43:08;;;;;;;22.48;2.88;;;;;;;22.72;53.51;99880.22;7312301;19;129226;-40
2022/01/27 06:45:33;;;;;;;22.02;3.28;;;;;;;22.79;53.68;99876.09;7310670;19;130738;-39
2022/01/27 06:47:59;;;;;;;46.28;4.78;;;;;;;22.82;53.58;99878.41;7307203;19;158739;-39
2022/01/27 06:50:24;;;;;;;35.97;4.55;;;;;;;22.95;53.40;99878.94;7310910;19;154779;-38
2022/01/27 06:52:49;;;;;;;41.10;5.07;;;;;;;22.98;53.25;99883.91;7311059;19;129763;-39
2022/01/27 06:55:17;;;;;;;45.22;5.70;;;;;;;22.99;52.95;99880.34;7307885;19;158901;-41
2022/01/27 06:57:44;;;;;;;34.05;3.65;;;;;;;22.89;53.90;99869.03;7312818;19;130613;-38
2022/01/27 07:00:09;;;;;;;;;;;;;;;22.89;54.09;99890.81;7312252;19;129081;-40
2022/01/27 07:02:35;;;;;;;31.17;3.70;;;;;;;22.93;53.96;99878.25;7312715;19;129133;-41
2022/01/27 07:05:00;;;;;;;25.90;3.30;;;;;;;22.98;53.83;99889.16;7311756;19;130262;-41
2022/01/27 07:07:26;;;;;;;30.80;3.40;;;;;;;22.92;53.60;99876.63;7307381;19;129189;-38
2022/01/27 07:09:51;;;;;;;28.33;3.80;;;;;;;23.04;53.49;99885.94;7309269;19;154453;-40
2022/01/27 07:12:17;;;;;;;44.33;4.97;;;;;;;23.01;54.06;99875.75;7310868;19;153465;-38
2022/01/27 07:14:42;;;;;;;52.35;5.28;;;;;;;23.12;54.22;99883.47;7308466;19;129098;-39
2022/01/27 07:17:07;;;;;;;12.90;2.22;;;;;;;23.16;53.84;99884.81;7307329;19;155935;-40
2022/01/27 07:19:33;;;;;;;28.17;3.28;;;;;;;23.21;53.43;99872.09;7311323;19;129569;-39
2022/01/27 07:21:58;;;;;;;24.63;3.00;;;;;;;23.22;54.51;99871.16;7307501;19;154301;-38
2022/01/27 07:24:24;;;;;;;43.20;4.87;;;;;;;23.30;54.11;99866.03;7311043;19;130219;-39
2022/01/27 07:26:49;;;;;;;45.70;4.78;;;;;;;23.34;53.64;99867.38;7305220;19;144098;-39
2022/01/27 07:29:14;;;;;;;24.10;3.20;;;;;;;23.37;53.67;99848.72;7308817;19;154831;-40
2022/01/27 07:31:40;;;;;;;20.33;2.78;;;;;;;23.40;53.79;99845.00;7311330;19;138709;-42
2022/01/27 07:34:05;;;;;;;5.67;1.63;;;;;;;23.42;53.24;99836.00;7311286;19;129068;-39
2022/01/27 07:36:31;;;;;;;34.20;3.97;;;;;;;23.47;53.50;99852.13;7308340;19;130344;-40
2022/01/27 07:38:57;;;;;;;29.70;3.53;;;;;;;23.47;53.63;99836.38;7310973;19;130203;-39
2022/01/27 07:41:23;;;;;;;34.22;4.15;;;;;;;23.42;53.47;99846.50;7311388;19;129993;-39
2022/01/27 07:43:48;;;;;;;25.57;3.40;;;;;;;23.41;54.15;99823.88;7310316;19;150324;-40
2022/01/27 07:46:14;;;;;;;27.25;3.45;;;;;;;23.36;54.16;99828.72;7306871;19;158421;-39
2022/01/27 07:48:40;;;;;;;33.27;3.67;;;;;;;23.30;53.73;99812.75;7311590;19;130149;-38
2022/01/27 07:51:07;;;;;;;18.85;2.53;;;;;;;23.24;53.91;99808.84;7310416;19;129144;-39
2022/01/27 07:53:34;;;;;;;21.65;3.08;;;;;;;23.14;54.94;99787.09;7310494;19;130603;-39
2022/01/27 07:56:02;;;;;;;23.17;2.83;;;;;;;23.12;55.01;99783.81;7308101;19;130479;-39
2022/01/27 07:58:27;;;;;;;25.10;3.28;;;;;;;23.10;54.87;99804.09;7311301;19;129176;-40
2022/01/27 08:00:52;;;;;;;32.88;3.60;;;;;;;23.03;55.10;99787.28;7308106;19;154787;-39
2022/01/27 08:03:17;;;;;;;25.00;3.07;;;;;;;22.98;55.44;99786.88;7309476;19;158543;-39
2022/01/27 08:05:43;;;;;;;35.70;4.25;;;;;;;22.91;55.49;99797.13;7306259;19;158367;-39
2022/01/27 08:08:08;;;;;;;9.05;2.70;;;;;;;22.80;52.53;99783.34;7310217;19;129914;-40
2022/01/27 08:10:37;;;;;;;32.80;4.47;;;;;;;22.55;49.24;99755.97;7309200;19;153839;-39
2022/01/27 08:13:06;;;;;;;30.42;3.85;;;;;;;22.61;49.51;99762.47;7310235;19;130430;-39
2022/01/27 08:15:32;;;;;;;27.90;3.75;;;;;;;22.53;50.36;99757.06;7308573;19;130270;-39
2022/01/27 08:17:57;;;;;;;12.57;2.83;;;;;;;22.51;49.02;99766.88;7310121;19;129447;-39
2022/01/27 08:20:22;;;;;;;34.22;4.00;;;;;;;22.45;49.66;99770.88;7309466;19;141538;-38
2022/01/27 08:22:50;;;;;;;32.70;4.43;;;;;;;22.43;50.10;99779.84;7306817;19;153961;-39
2022/01/27 08:25:16;;;;;;;61.97;7.40;;;;;;;22.45;48.69;99777.88;7311705;19;132547;-38
2022/01/27 08:27:44;;;;;;;26.50;3.88;;;;;;;22.39;49.05;99794.19;7313157;19;154514;-38
2022/01/27 08:30:11;;;;;;;27.95;3.90;;;;;;;22.34;49.05;99804.25;7317606;19;131414;-39
2022/01/27 08:35:21;;;;;;;52.55;5.88;;;;;;;22.38;48.76;99803.00;7313747;19;129752;-38
2022/01/27 08:37:47;;;;;;;27.58;3.90;;;;;;;22.33;48.59;99802.59;7315946;19;130329;-37
2022/01/27 08:40:14;;;;;;;40.07;5.50;;;;;;;22.35;48.45;99787.56;7315934;19;129371;-38
2022/01/27 08:42:41;;;;;;;26.40;3.70;;;;;;;22.29;48.40;99756.69;7316811;19;130463;-41
2022/01/27 08:45:12;;;;;;;43.72;5.47;;;;;;;22.47;47.90;99771.56;7314065;19;129564;-39
2022/01/27 08:47:38;;;;;;;28.80;3.83;;;;;;;22.58;47.68;99773.19;7316583;19;130315;-39
2022/01/27 08:50:05;;;;;;;36.30;4.53;;;;;;;22.68;47.29;99759.13;7315057;19;129977;-38
2022/01/27 08:52:31;;;;;;;30.75;4.05;;;;;;;22.87;46.95;99763.47;7314954;19;130235;-39
2022/01/27 08:54:56;;;;;;;20.77;3.25;;;;;;;22.97;45.92;99767.69;7315746;19;130241;-39
2022/01/27 08:57:22;;;;;;;36.78;4.90;;;;;;;22.99;45.29;99746.59;7313293;19;131276;-38
2022/01/27 08:59:49;;;;;;;33.45;4.30;;;;;;;23.15;45.62;99746.78;7313306;19;155184;-39
2022/01/27 09:02:14;;;;;;;19.25;3.53;;;;;;;23.26;44.72;99733.47;7313559;19;130068;-38
2022/01/27 09:04:39;;;;;;;42.78;4.82;;;;;;;23.33;45.16;99755.56;7315605;19;130408;-38
2022/01/27 09:07:04;;;;;;;22.03;3.27;;;;;;;23.35;44.66;99734.41;7311411;19;154653;-40
2022/01/27 09:09:30;;;;;;;23.08;3.30;;;;;;;23.43;44.47;99724.84;7314195;19;155200;-39
2022/01/27 09:11:58;;;;;;;29.13;3.88;;;;;;;23.52;43.86;99712.63;7315954;19;130331;-39
2022/01/27 09:14:28;;;;;;;38.90;4.60;;;;;;;23.51;43.66;99703.94;7315210;19;131637;-37
2022/01/27 09:16:53;;;;;;;38.75;4.43;;;;;;;23.46;43.85;99727.16;7312544;19;128937;-41
2022/01/27 09:19:19;;;;;;;56.83;5.93;;;;;;;23.42;44.09;99730.25;7312732;19;154005;-38
2022/01/27 09:21:46;;;;;;;35.33;4.33;;;;;;;23.32;44.22;99714.53;7312807;19;130298;-38
2022/01/27 09:24:15;;;;;;;;;;;;;;;23.24;44.45;99724.91;7315531;19;130460;-41
2022/01/27 09:29:15;;;;;;;18.88;3.22;;;;;;;23.19;44.04;99727.97;7314696;19;129303;-42
2022/01/27 09:31:40;;;;;;;29.77;3.87;;;;;;;23.08;44.56;99727.34;7314211;19;129991;-39
2022/01/27 09:34:05;;;;;;;25.63;3.50;;;;;;;23.20;44.83;99744.56;7315554;19;130340;-40
2022/01/27 09:36:31;;;;;;;52.07;5.70;;;;;;;23.24;44.44;99743.28;7309180;19;155362;-39
2022/01/27 09:38:56;;;;;;;29.02;3.95;;;;;;;23.27;43.88;99727.25;7314270;19;133784;-40
2022/01/27 09:41:22;;;;;;;29.45;3.63;;;;;;;23.32;44.12;99730.28;7313643;19;135985;-40
2022/01/27 09:43:49;;;;;;;26.53;4.03;;;;;;;23.39;43.28;99720.84;7315153;19;130943;-39
2022/01/27 09:46:18;;;;;;;24.52;4.15;;;;;;;23.42;43.85;99717.13;7312892;19;129079;-40
2022/01/27 09:48:47;;;;;;;32.55;4.28;;;;;;;23.46;43.71;99706.16;7315210;19;129412;-38
2022/01/27 09:51:55;;;;;;;16.50;2.83;;;;;;;23.51;43.31;99701.31;7314350;19;130188;-38
2022/01/27 09:54:02;;;;;;;27.13;3.75;;;;;;;23.61;42.97;99707.31;7312111;19;129281;-39
2022/01/27 09:56:27;;;;;;;25.60;3.67;;;;;;;23.59;42.73;99704.00;7312501;19;129097;-42
2022/01/27 09:58:52;;;;;;;37.97;4.72;;;;;;;23.56;42.56;99699.06;7313238;19;154811;-40
2022/01/27 10:01:17;;;;;;;28.30;3.65;;;;;;;23.68;42.50;99705.75;7312779;19;152408;-38
2022/01/27 10:04:04;;;;;;;42.13;5.17;;;;;;;23.70;42.61;99706.38;7311364;19;158610;-40
2022/01/27 10:06:31;;;;;;;27.60;3.58;;;;;;;23.73;41.77;99698.25;7311350;19;129246;-40
2022/01/27 10:09:19;;;;;;;25.83;3.80;;;;;;;23.68;42.28;99682.13;7313758;19;129081;-39
2022/01/27 10:11:47;;;;;;;42.45;4.88;;;;;;;23.65;42.45;99681.59;7313445;19;130542;-40
2022/01/27 10:14:35;;;;;;;29.08;4.10;;;;;;;23.52;43.19;99689.81;7312715;19;130246;-38
2022/01/27 10:17:06;;;;;;;21.60;3.22;;;;;;;23.47;43.04;99692.06;7309923;19;129341;-39
2022/01/27 10:19:35;;;;;;;19.20;3.40;;;;;;;23.40;42.57;99688.41;7312964;19;128886;-39
2022/01/27 10:22:04;;;;;;;21.80;3.47;;;;;;;23.34;43.00;99712.59;7311924;19;130189;-40
2022/01/27 10:24:32;;;;;;;30.40;3.95;;;;;;;23.32;43.03;99693.53;7313493;19;130249;-40
2022/01/27 10:27:45;;;;;;;32.75;4.20;;;;;;;23.33;42.56;99704.88;7309183;19;129732;-40
2022/01/27 10:33:03;;;;;;;32.05;4.72;;;;;;;23.38;42.58;99689.50;7312231;19;128996;-40
2022/01/27 10:35:29;;;;;;;32.13;4.25;;;;;;;23.42;42.69;99690.88;7311965;19;130470;-41
2022/01/27 10:37:56;;;;;;;32.87;4.43;;;;;;;23.47;42.32;99689.44;7311293;19;129270;-41
2022/01/27 10:40:26;;;;;;;27.73;3.83;;;;;;;23.44;42.92;99663.50;7313063;19;130839;-39
2022/01/27 10:43:08;;;;;;;36.63;4.90;;;;;;;23.55;42.04;99671.13;7311323;19;130356;-40
2022/01/27 10:45:35;;;;;;;27.88;3.70;;;;;;;23.59;42.63;99661.16;7312127;19;130826;-39
2022/01/27 10:48:10;;;;;;;15.93;3.00;;;;;;;23.65;41.71;99666.63;7308989;19;128840;-39
2022/01/27 10:50:49;;;;;;;20.65;3.40;;;;;;;23.71;41.50;99666.06;7313030;19;129068;-40
2022/01/27 10:53:15;;;;;;;37.20;4.97;;;;;;;23.76;42.18;99662.97;7311761;19;130208;-39
2022/01/27 10:55:41;;;;;;;30.97;4.17;;;;;;;23.78;41.74;99658.41;7311789;19;130443;-38
2022/01/27 10:58:26;;;;;;;26.10;3.50;;;;;;;23.80;41.29;99659.88;7310080;19;153319;-38
2022/01/27 11:00:59;;;;;;;31.10;3.83;;;;;;;23.82;41.48;99663.19;7311259;19;129574;-39
2022/01/27 11:03:25;;;;;;;35.05;4.72;;;;;;;23.76;41.31;99661.19;7310932;19;130574;-38
2022/01/27 11:05:50;;;;;;;19.33;3.67;;;;;;;23.72;41.56;99657.19;7309653;19;129682;-38
2022/01/27 11:08:19;;;;;;;36.22;4.70;;;;;;;23.63;42.10;99652.88;7311300;19;129362;-37
2022/01/27 11:10:48;;;;;;;34.92;4.20;;;;;;;23.53;41.73;99652.13;7312282;19;128966;-40
2022/01/27 11:13:15;;;;;;;34.60;4.75;;;;;;;23.45;41.82;99646.81;7311765;19;131241;-38
2022/01/27 11:15:42;;;;;;;20.30;3.38;;;;;;;23.32;42.05;99640.28;7310249;19;129162;-39
2022/01/27 11:18:08;;;;;;;32.92;4.53;;;;;;;23.36;42.01;99645.06;7313190;19;129405;-39
2022/01/27 11:23:47;;;;;;;36.57;5.03;;;;;;;23.38;42.16;99637.03;7311764;19;129754;-41
2022/01/27 11:26:13;;;;;;;33.92;4.40;;;;;;;23.41;42.18;99627.06;7309197;19;130026;-38
2022/01/27 11:28:47;;;;;;;20.90;3.45;;;;;;;23.45;42.06;99625.81;7311743;19;128977;-40
2022/01/27 11:31:18;;;;;;;31.52;4.10;;;;;;;23.50;41.88;99626.19;7311857;19;130790;-39
2022/01/27 11:33:57;;;;;;;30.85;4.38;;;;;;;23.56;41.80;99628.19;7311567;19;129510;-38
2022/01/27 11:36:24;;;;;;;32.58;4.32;;;;;;;23.59;41.33;99627.06;7309491;19;130675;-40
2022/01/27 11:38:50;;;;;;;29.33;4.15;;;;;;;23.68;41.67;99613.88;7311660;19;130251;-40
2022/01/27 11:41:33;;;;;;;51.85;5.53;;;;;;;23.66;41.28;99626.31;7308400;19;130844;-40
2022/01/27 11:44:22;;;;;;;22.33;3.15;;;;;;;23.69;41.66;99614.66;7309282;19;158891;-38
2022/01/27 11:47:14;;;;;;;47.60;5.70;;;;;;;23.73;41.28;99605.53;7307071;19;130479;-40
2022/01/27 11:50:02;;;;;;;26.60;3.70;;;;;;;23.71;41.40;99618.81;7312209;19;129410;-39
2022/01/27 11:52:33;;;;;;;55.63;6.10;;;;;;;23.74;41.67;99602.75;7309474;19;129683;-40
2022/01/27 11:55:40;;;;;;;23.35;3.45;;;;;;;23.70;41.51;99601.38;7310224;19;130929;-39
2022/01/27 11:58:14;;;;;;;25.45;3.78;;;;;;;23.68;41.52;99587.63;7305703;19;130483;-40
2022/01/27 12:00:40;;;;;;;35.70;4.30;;;;;;;23.60;41.39;99594.59;7305293;19;129676;-42
2022/01/27 12:03:14;;;;;;;33.78;4.35;;;;;;;23.43;41.93;99579.69;7305573;19;129134;-39
2022/01/27 12:05:42;;;;;;;36.30;4.40;;;;;;;23.43;42.07;99585.78;7308206;19;130168;-41